sensor_id;sensor_type;location;lat;lon;timestamp;temperature;humidity
52509;DHT22;38420;53.150;6.370;2023-12-20T00:01:32;5.90;99.90
52509;DHT22;38420;53.150;6.370;2023-12-20T00:03:58;6.20;99.90
52509;DHT22;38420;53.150;6.370;2023-12-20T00:06:23;6.00;99.90
52509;DHT22;38420;53.150;6.370;2023-12-20T00:08:49;6.20;99.90
52509;DHT22;38420;53.150;6.370;2023-12-20T00:11:15;6.20;99.90
52509;DHT22;38420;53.150;6.370;2023-12-20T00:13:40;6.30;99.90
52509;DHT22;38420;53.150;6.370;2023-12-20T00:16:06;5.70;99.90
52509;DHT22;38420;53.150;6.370;2023-12-20T00:18:31;6.30;99.90
52509;DHT22;38420;53.150;6.370;2023-12-20T00:20:57;5.80;99.90
52509;DHT22;38420;53.150;6.370;2023-12-20T00:23:23;5.90;99.90
52509;DHT22;38420;53.150;6.370;2023-12-20T00:25:49;5.80;99.90
52509;DHT22;38420;53.150;6.370;2023-12-20T00:28:14;5.70;99.90
52509;DHT22;38420;53.150;6.370;2023-12-20T00:30:40;6.10;99.90
52509;DHT22;38420;53.150;6.370;2023-12-20T00:33:05;5.80;99.90
52509;DHT22;38420;53.150;6.370;2023-12-20T00:35:31;6.30;99.90
52509;DHT22;38420;53.150;6.370;2023-12-20T00:37:58;6.30;99.90
52509;DHT22;38420;53.150;6.370;2023-12-20T00:40:24;6.10;99.90
52509;DHT22;38420;53.150;6.370;2023-12-20T00:42:49;5.60;99.90
52509;DHT22;38420;53.150;6.370;2023-12-20T00:45:15;5.70;99.90
52509;DHT22;38420;53.150;6.370;2023-12-20T00:47:40;6.30;99.90
52509;DHT22;38420;53.150;6.370;2023-12-20T00:50:07;6.20;99.90
52509;DHT22;38420;53.150;6.370;2023-12-20T00:52:32;6.10;99.90
52509;DHT22;38420;53.150;6.370;2023-12-20T00:54:58;6.10;99.90
52509;DHT22;38420;53.150;6.370;2023-12-20T00:57:23;6.20;99.90
52509;DHT22;38420;53.150;6.370;2023-12-20T00:59:49;6.20;99.90
52509;DHT22;38420;53.150;6.370;2023-12-20T01:02:15;5.70;99.90
52509;DHT22;38420;53.150;6.370;2023-12-20T01:04:40;6.30;99.90
52509;DHT22;38420;53.150;6.370;2023-12-20T01:07:06;6.30;99.90
52509;DHT22;38420;53.150;6.370;2023-12-20T01:09:31;6.40;99.90
52509;DHT22;38420;53.150;6.370;2023-12-20T01:11:57;6.40;99.90
52509;DHT22;38420;53.150;6.370;2023-12-20T01:14:22;5.90;99.90
52509;DHT22;38420;53.150;6.370;2023-12-20T01:16:48;6.10;99.90
52509;DHT22;38420;53.150;6.370;2023-12-20T01:19:13;5.90;99.90
52509;DHT22;38420;53.150;6.370;2023-12-20T01:21:40;6.20;99.90
52509;DHT22;38420;53.150;6.370;2023-12-20T01:24:05;6.30;99.90
52509;DHT22;38420;53.150;6.370;2023-12-20T01:26:31;5.90;99.90
52509;DHT22;38420;53.150;6.370;2023-12-20T01:28:57;6.20;99.90
52509;DHT22;38420;53.150;6.370;2023-12-20T01:31:22;5.80;99.90
52509;DHT22;38420;53.150;6.370;2023-12-20T01:33:48;6.40;99.90
52509;DHT22;38420;53.150;6.370;2023-12-20T01:36:14;6.20;99.90
52509;DHT22;38420;53.150;6.370;2023-12-20T01:38:39;6.10;99.90
52509;DHT22;38420;53.150;6.370;2023-12-20T01:41:05;6.10;99.90
52509;DHT22;38420;53.150;6.370;2023-12-20T01:43:31;6.40;99.90
52509;DHT22;38420;53.150;6.370;2023-12-20T01:45:57;5.90;99.90
52509;DHT22;38420;53.150;6.370;2023-12-20T01:48:24;5.90;99.90
52509;DHT22;38420;53.150;6.370;2023-12-20T01:50:51;6.10;99.90
52509;DHT22;38420;53.150;6.370;2023-12-20T01:53:18;6.20;99.90
52509;DHT22;38420;53.150;6.370;2023-12-20T01:55:44;6.20;99.90
52509;DHT22;38420;53.150;6.370;2023-12-20T01:58:11;5.80;99.90
52509;DHT22;38420;53.150;6.370;2023-12-20T02:00:37;5.90;99.90
52509;DHT22;38420;53.150;6.370;2023-12-20T02:03:04;6.20;99.90
52509;DHT22;38420;53.150;6.370;2023-12-20T02:05:30;6.40;99.90
52509;DHT22;38420;53.150;6.370;2023-12-20T02:07:56;6.40;99.90
52509;DHT22;38420;53.150;6.370;2023-12-20T02:10:23;6.40;99.90
52509;DHT22;38420;53.150;6.370;2023-12-20T02:12:48;6.00;99.90
52509;DHT22;38420;53.150;6.370;2023-12-20T02:15:14;6.00;99.90
52509;DHT22;38420;53.150;6.370;2023-12-20T02:17:40;6.40;99.90
52509;DHT22;38420;53.150;6.370;2023-12-20T02:20:06;6.30;99.90
52509;DHT22;38420;53.150;6.370;2023-12-20T02:22:32;6.40;99.90
52509;DHT22;38420;53.150;6.370;2023-12-20T02:24:57;6.20;99.90
52509;DHT22;38420;53.150;6.370;2023-12-20T02:27:24;6.50;99.90
52509;DHT22;38420;53.150;6.370;2023-12-20T02:29:50;6.10;99.90
52509;DHT22;38420;53.150;6.370;2023-12-20T02:32:19;6.20;99.90
52509;DHT22;38420;53.150;6.370;2023-12-20T02:34:47;6.20;99.90
52509;DHT22;38420;53.150;6.370;2023-12-20T02:37:13;6.60;99.90
52509;DHT22;38420;53.150;6.370;2023-12-20T02:39:38;6.10;99.90
52509;DHT22;38420;53.150;6.370;2023-12-20T02:42:04;6.20;99.90
52509;DHT22;38420;53.150;6.370;2023-12-20T02:44:29;6.20;99.90
52509;DHT22;38420;53.150;6.370;2023-12-20T02:46:55;6.50;99.90
52509;DHT22;38420;53.150;6.370;2023-12-20T02:49:21;6.30;99.90
52509;DHT22;38420;53.150;6.370;2023-12-20T02:51:46;6.70;99.90
52509;DHT22;38420;53.150;6.370;2023-12-20T02:54:12;6.50;99.90
52509;DHT22;38420;53.150;6.370;2023-12-20T02:56:38;6.30;99.90
52509;DHT22;38420;53.150;6.370;2023-12-20T02:59:04;6.60;99.90
52509;DHT22;38420;53.150;6.370;2023-12-20T03:01:34;6.30;99.90
52509;DHT22;38420;53.150;6.370;2023-12-20T03:04:00;6.80;99.90
52509;DHT22;38420;53.150;6.370;2023-12-20T03:06:25;6.40;99.90
52509;DHT22;38420;53.150;6.370;2023-12-20T03:08:51;6.40;99.90
52509;DHT22;38420;53.150;6.370;2023-12-20T03:11:17;6.70;99.90
52509;DHT22;38420;53.150;6.370;2023-12-20T03:13:43;6.30;99.90
52509;DHT22;38420;53.150;6.370;2023-12-20T03:16:12;6.40;99.90
52509;DHT22;38420;53.150;6.370;2023-12-20T03:18:38;6.50;99.90
52509;DHT22;38420;53.150;6.370;2023-12-20T03:21:05;6.70;99.90
52509;DHT22;38420;53.150;6.370;2023-12-20T03:23:30;6.50;99.90
52509;DHT22;38420;53.150;6.370;2023-12-20T03:25:58;6.50;99.90
52509;DHT22;38420;53.150;6.370;2023-12-20T03:28:24;6.70;99.90
52509;DHT22;38420;53.150;6.370;2023-12-20T03:30:49;6.60;99.90
52509;DHT22;38420;53.150;6.370;2023-12-20T03:33:15;6.60;99.90
52509;DHT22;38420;53.150;6.370;2023-12-20T03:35:40;6.60;99.90
52509;DHT22;38420;53.150;6.370;2023-12-20T03:38:06;6.50;99.90
52509;DHT22;38420;53.150;6.370;2023-12-20T03:40:32;6.90;99.90
52509;DHT22;38420;53.150;6.370;2023-12-20T03:42:58;6.90;99.90
52509;DHT22;38420;53.150;6.370;2023-12-20T03:45:23;6.90;99.90
52509;DHT22;38420;53.150;6.370;2023-12-20T03:47:49;6.90;99.90
52509;DHT22;38420;53.150;6.370;2023-12-20T03:50:15;6.60;99.90
52509;DHT22;38420;53.150;6.370;2023-12-20T03:52:41;6.90;99.90
52509;DHT22;38420;53.150;6.370;2023-12-20T03:55:06;6.80;99.90
52509;DHT22;38420;53.150;6.370;2023-12-20T03:57:32;6.70;99.90
52509;DHT22;38420;53.150;6.370;2023-12-20T03:59:57;7.00;99.90
52509;DHT22;38420;53.150;6.370;2023-12-20T04:02:23;6.70;99.90
52509;DHT22;38420;53.150;6.370;2023-12-20T04:04:48;6.90;99.90
52509;DHT22;38420;53.150;6.370;2023-12-20T04:07:14;7.00;99.90
52509;DHT22;38420;53.150;6.370;2023-12-20T04:09:41;6.80;99.90
52509;DHT22;38420;53.150;6.370;2023-12-20T04:12:07;6.70;99.90
52509;DHT22;38420;53.150;6.370;2023-12-20T04:14:32;6.80;99.90
52509;DHT22;38420;53.150;6.370;2023-12-20T04:16:58;6.70;99.90
52509;DHT22;38420;53.150;6.370;2023-12-20T04:19:24;7.00;99.90
52509;DHT22;38420;53.150;6.370;2023-12-20T04:21:49;7.00;99.90
52509;DHT22;38420;53.150;6.370;2023-12-20T04:24:15;7.10;99.90
52509;DHT22;38420;53.150;6.370;2023-12-20T04:26:40;7.00;99.90
52509;DHT22;38420;53.150;6.370;2023-12-20T04:29:06;7.10;99.90
52509;DHT22;38420;53.150;6.370;2023-12-20T04:31:31;6.90;99.90
52509;DHT22;38420;53.150;6.370;2023-12-20T04:33:57;6.90;99.90
52509;DHT22;38420;53.150;6.370;2023-12-20T04:36:23;7.00;99.90
52509;DHT22;38420;53.150;6.370;2023-12-20T04:38:50;6.90;99.90
52509;DHT22;38420;53.150;6.370;2023-12-20T04:41:16;6.90;99.90
52509;DHT22;38420;53.150;6.370;2023-12-20T04:43:41;7.10;99.90
52509;DHT22;38420;53.150;6.370;2023-12-20T04:46:07;7.10;99.90
52509;DHT22;38420;53.150;6.370;2023-12-20T04:48:32;7.20;99.90
52509;DHT22;38420;53.150;6.370;2023-12-20T04:50:58;7.00;99.90
52509;DHT22;38420;53.150;6.370;2023-12-20T04:53:24;7.00;99.90
52509;DHT22;38420;53.150;6.370;2023-12-20T04:55:49;7.10;99.90
52509;DHT22;38420;53.150;6.370;2023-12-20T04:58:15;7.10;99.90
52509;DHT22;38420;53.150;6.370;2023-12-20T05:00:40;7.10;99.90
52509;DHT22;38420;53.150;6.370;2023-12-20T05:03:06;7.20;99.90
52509;DHT22;38420;53.150;6.370;2023-12-20T05:05:31;7.20;99.90
52509;DHT22;38420;53.150;6.370;2023-12-20T05:07:57;7.20;99.90
52509;DHT22;38420;53.150;6.370;2023-12-20T05:10:23;7.20;99.90
52509;DHT22;38420;53.150;6.370;2023-12-20T05:12:48;7.40;99.90
52509;DHT22;38420;53.150;6.370;2023-12-20T05:15:14;7.20;99.90
52509;DHT22;38420;53.150;6.370;2023-12-20T05:17:39;7.40;99.90
52509;DHT22;38420;53.150;6.370;2023-12-20T05:20:05;7.40;99.90
52509;DHT22;38420;53.150;6.370;2023-12-20T05:22:31;7.30;99.90
52509;DHT22;38420;53.150;6.370;2023-12-20T05:24:57;7.50;99.90
52509;DHT22;38420;53.150;6.370;2023-12-20T05:27:22;7.40;99.90
52509;DHT22;38420;53.150;6.370;2023-12-20T05:29:48;7.50;99.90
52509;DHT22;38420;53.150;6.370;2023-12-20T05:32:13;7.30;99.90
52509;DHT22;38420;53.150;6.370;2023-12-20T05:34:39;7.30;99.90
52509;DHT22;38420;53.150;6.370;2023-12-20T05:37:05;7.50;99.90
52509;DHT22;38420;53.150;6.370;2023-12-20T05:39:30;7.30;99.90
52509;DHT22;38420;53.150;6.370;2023-12-20T05:41:56;7.50;99.90
52509;DHT22;38420;53.150;6.370;2023-12-20T05:44:22;7.40;99.90
52509;DHT22;38420;53.150;6.370;2023-12-20T05:46:47;7.40;99.90
52509;DHT22;38420;53.150;6.370;2023-12-20T05:49:13;7.40;99.90
52509;DHT22;38420;53.150;6.370;2023-12-20T05:51:39;7.30;99.90
52509;DHT22;38420;53.150;6.370;2023-12-20T05:54:05;7.30;99.90
52509;DHT22;38420;53.150;6.370;2023-12-20T05:56:30;7.50;99.90
52509;DHT22;38420;53.150;6.370;2023-12-20T05:58:56;7.40;99.90
52509;DHT22;38420;53.150;6.370;2023-12-20T06:01:21;7.30;99.90
52509;DHT22;38420;53.150;6.370;2023-12-20T06:03:47;7.50;99.90
52509;DHT22;38420;53.150;6.370;2023-12-20T06:06:12;7.50;99.90
52509;DHT22;38420;53.150;6.370;2023-12-20T06:08:38;7.50;99.90
52509;DHT22;38420;53.150;6.370;2023-12-20T06:11:04;7.30;99.90
52509;DHT22;38420;53.150;6.370;2023-12-20T06:13:31;7.50;99.90
52509;DHT22;38420;53.150;6.370;2023-12-20T06:15:56;7.30;99.90
52509;DHT22;38420;53.150;6.370;2023-12-20T06:18:22;7.60;99.90
52509;DHT22;38420;53.150;6.370;2023-12-20T06:20:48;7.40;99.90
52509;DHT22;38420;53.150;6.370;2023-12-20T06:23:13;7.60;99.90
52509;DHT22;38420;53.150;6.370;2023-12-20T06:25:39;7.60;99.90
52509;DHT22;38420;53.150;6.370;2023-12-20T06:28:05;7.60;99.90
52509;DHT22;38420;53.150;6.370;2023-12-20T06:30:31;7.50;99.90
52509;DHT22;38420;53.150;6.370;2023-12-20T06:32:58;7.70;99.90
52509;DHT22;38420;53.150;6.370;2023-12-20T06:35:24;7.80;99.90
52509;DHT22;38420;53.150;6.370;2023-12-20T06:37:50;7.80;99.90
52509;DHT22;38420;53.150;6.370;2023-12-20T06:40:16;7.80;99.90
52509;DHT22;38420;53.150;6.370;2023-12-20T06:42:41;7.70;99.90
52509;DHT22;38420;53.150;6.370;2023-12-20T06:45:07;7.80;99.90
52509;DHT22;38420;53.150;6.370;2023-12-20T06:47:33;7.70;99.90
52509;DHT22;38420;53.150;6.370;2023-12-20T06:49:59;7.70;99.90
52509;DHT22;38420;53.150;6.370;2023-12-20T06:52:24;7.80;99.90
52509;DHT22;38420;53.150;6.370;2023-12-20T06:54:50;7.90;99.90
52509;DHT22;38420;53.150;6.370;2023-12-20T06:57:15;7.80;99.90
52509;DHT22;38420;53.150;6.370;2023-12-20T06:59:41;7.70;99.90
52509;DHT22;38420;53.150;6.370;2023-12-20T07:02:08;7.80;99.90
52509;DHT22;38420;53.150;6.370;2023-12-20T07:04:34;7.80;99.90
52509;DHT22;38420;53.150;6.370;2023-12-20T07:06:59;7.70;99.90
52509;DHT22;38420;53.150;6.370;2023-12-20T07:09:28;7.80;99.90
52509;DHT22;38420;53.150;6.370;2023-12-20T07:11:54;7.80;99.90
52509;DHT22;38420;53.150;6.370;2023-12-20T07:14:19;7.90;99.90
52509;DHT22;38420;53.150;6.370;2023-12-20T07:16:45;7.80;99.90
52509;DHT22;38420;53.150;6.370;2023-12-20T07:19:11;7.90;99.90
52509;DHT22;38420;53.150;6.370;2023-12-20T07:21:36;8.00;99.90
52509;DHT22;38420;53.150;6.370;2023-12-20T07:24:02;8.10;99.90
52509;DHT22;38420;53.150;6.370;2023-12-20T07:26:27;7.90;99.90
52509;DHT22;38420;53.150;6.370;2023-12-20T07:28:53;7.90;99.90
52509;DHT22;38420;53.150;6.370;2023-12-20T07:31:18;7.90;99.90
52509;DHT22;38420;53.150;6.370;2023-12-20T07:33:44;7.90;99.90
52509;DHT22;38420;53.150;6.370;2023-12-20T07:36:09;8.00;99.90
52509;DHT22;38420;53.150;6.370;2023-12-20T07:38:35;7.90;99.90
52509;DHT22;38420;53.150;6.370;2023-12-20T07:41:01;8.00;99.90
52509;DHT22;38420;53.150;6.370;2023-12-20T07:43:26;7.90;99.90
52509;DHT22;38420;53.150;6.370;2023-12-20T07:45:52;8.10;99.90
52509;DHT22;38420;53.150;6.370;2023-12-20T07:48:17;8.10;99.90
52509;DHT22;38420;53.150;6.370;2023-12-20T07:50:43;8.00;99.90
52509;DHT22;38420;53.150;6.370;2023-12-20T07:53:09;7.90;99.90
52509;DHT22;38420;53.150;6.370;2023-12-20T07:55:34;7.90;99.90
52509;DHT22;38420;53.150;6.370;2023-12-20T07:58:00;7.90;99.90
52509;DHT22;38420;53.150;6.370;2023-12-20T08:00:26;7.90;99.90
52509;DHT22;38420;53.150;6.370;2023-12-20T08:02:52;7.90;99.90
52509;DHT22;38420;53.150;6.370;2023-12-20T08:05:17;7.90;99.90
52509;DHT22;38420;53.150;6.370;2023-12-20T08:07:43;8.00;99.90
52509;DHT22;38420;53.150;6.370;2023-12-20T08:10:09;8.00;99.90
52509;DHT22;38420;53.150;6.370;2023-12-20T08:12:34;7.90;99.90
52509;DHT22;38420;53.150;6.370;2023-12-20T08:15:01;8.00;99.90
52509;DHT22;38420;53.150;6.370;2023-12-20T08:17:28;8.10;99.90
52509;DHT22;38420;53.150;6.370;2023-12-20T08:19:53;8.00;99.90
52509;DHT22;38420;53.150;6.370;2023-12-20T08:22:19;7.90;99.90
52509;DHT22;38420;53.150;6.370;2023-12-20T08:24:44;8.00;99.90
52509;DHT22;38420;53.150;6.370;2023-12-20T08:27:10;7.90;99.90
52509;DHT22;38420;53.150;6.370;2023-12-20T08:29:35;8.00;99.90
52509;DHT22;38420;53.150;6.370;2023-12-20T08:32:01;8.00;99.90
52509;DHT22;38420;53.150;6.370;2023-12-20T08:34:27;7.90;99.90
52509;DHT22;38420;53.150;6.370;2023-12-20T08:36:53;7.90;99.90
52509;DHT22;38420;53.150;6.370;2023-12-20T08:39:19;8.00;99.90
52509;DHT22;38420;53.150;6.370;2023-12-20T08:41:45;7.90;99.90
52509;DHT22;38420;53.150;6.370;2023-12-20T08:44:10;7.90;99.90
52509;DHT22;38420;53.150;6.370;2023-12-20T08:46:36;8.00;99.90
52509;DHT22;38420;53.150;6.370;2023-12-20T08:49:02;7.90;99.90
52509;DHT22;38420;53.150;6.370;2023-12-20T08:51:27;8.10;99.90
52509;DHT22;38420;53.150;6.370;2023-12-20T08:53:54;8.00;99.90
52509;DHT22;38420;53.150;6.370;2023-12-20T08:56:20;8.00;99.90
52509;DHT22;38420;53.150;6.370;2023-12-20T08:58:46;8.00;99.90
52509;DHT22;38420;53.150;6.370;2023-12-20T09:01:12;8.10;99.90
52509;DHT22;38420;53.150;6.370;2023-12-20T09:03:39;8.00;99.90
52509;DHT22;38420;53.150;6.370;2023-12-20T09:06:05;7.80;99.90
52509;DHT22;38420;53.150;6.370;2023-12-20T09:08:31;7.60;99.90
52509;DHT22;38420;53.150;6.370;2023-12-20T09:10:56;7.00;99.90
52509;DHT22;38420;53.150;6.370;2023-12-20T09:13:22;6.80;99.90
52509;DHT22;38420;53.150;6.370;2023-12-20T09:15:55;6.70;99.90
52509;DHT22;38420;53.150;6.370;2023-12-20T09:18:20;6.60;99.90
52509;DHT22;38420;53.150;6.370;2023-12-20T09:20:46;6.30;99.90
52509;DHT22;38420;53.150;6.370;2023-12-20T09:23:11;6.20;99.90
52509;DHT22;38420;53.150;6.370;2023-12-20T09:25:37;6.00;99.90
52509;DHT22;38420;53.150;6.370;2023-12-20T09:28:03;5.90;99.90
52509;DHT22;38420;53.150;6.370;2023-12-20T09:30:29;6.10;99.90
52509;DHT22;38420;53.150;6.370;2023-12-20T09:32:55;6.00;99.90
52509;DHT22;38420;53.150;6.370;2023-12-20T09:35:20;5.90;99.90
52509;DHT22;38420;53.150;6.370;2023-12-20T09:37:46;6.00;99.90
52509;DHT22;38420;53.150;6.370;2023-12-20T09:40:13;6.10;99.90
52509;DHT22;38420;53.150;6.370;2023-12-20T09:42:57;6.10;99.90
52509;DHT22;38420;53.150;6.370;2023-12-20T09:45:24;6.30;99.90
52509;DHT22;38420;53.150;6.370;2023-12-20T09:47:51;6.30;99.90
52509;DHT22;38420;53.150;6.370;2023-12-20T09:50:19;6.20;99.90
52509;DHT22;38420;53.150;6.370;2023-12-20T09:52:50;6.30;99.90
52509;DHT22;38420;53.150;6.370;2023-12-20T09:55:17;6.30;99.90
52509;DHT22;38420;53.150;6.370;2023-12-20T09:57:43;6.30;99.90
52509;DHT22;38420;53.150;6.370;2023-12-20T10:00:09;6.30;99.90
52509;DHT22;38420;53.150;6.370;2023-12-20T10:02:36;6.30;99.90
52509;DHT22;38420;53.150;6.370;2023-12-20T10:05:06;6.50;99.90
52509;DHT22;38420;53.150;6.370;2023-12-20T10:07:35;6.60;99.90
52509;DHT22;38420;53.150;6.370;2023-12-20T10:10:02;6.40;99.90
52509;DHT22;38420;53.150;6.370;2023-12-20T10:12:27;6.50;99.90
52509;DHT22;38420;53.150;6.370;2023-12-20T10:14:53;6.60;99.90
52509;DHT22;38420;53.150;6.370;2023-12-20T10:17:19;6.50;99.90
52509;DHT22;38420;53.150;6.370;2023-12-20T10:19:46;6.60;99.90
52509;DHT22;38420;53.150;6.370;2023-12-20T10:22:12;6.70;99.90
52509;DHT22;38420;53.150;6.370;2023-12-20T10:24:38;7.20;99.90
52509;DHT22;38420;53.150;6.370;2023-12-20T10:27:06;7.40;99.90
52509;DHT22;38420;53.150;6.370;2023-12-20T10:29:41;7.90;99.90
52509;DHT22;38420;53.150;6.370;2023-12-20T10:32:22;7.90;99.90
52509;DHT22;38420;53.150;6.370;2023-12-20T10:34:52;7.70;99.90
52509;DHT22;38420;53.150;6.370;2023-12-20T10:37:18;7.70;99.90
52509;DHT22;38420;53.150;6.370;2023-12-20T10:39:44;7.80;99.90
52509;DHT22;38420;53.150;6.370;2023-12-20T10:42:13;7.90;99.90
52509;DHT22;38420;53.150;6.370;2023-12-20T10:44:39;7.70;99.90
52509;DHT22;38420;53.150;6.370;2023-12-20T10:47:06;7.40;99.90
52509;DHT22;38420;53.150;6.370;2023-12-20T10:49:34;7.30;99.90
52509;DHT22;38420;53.150;6.370;2023-12-20T10:52:02;7.10;99.90
52509;DHT22;38420;53.150;6.370;2023-12-20T10:54:29;7.00;99.90
52509;DHT22;38420;53.150;6.370;2023-12-20T10:56:57;6.90;99.90
52509;DHT22;38420;53.150;6.370;2023-12-20T10:59:24;7.00;99.90
52509;DHT22;38420;53.150;6.370;2023-12-20T11:01:50;6.90;99.90
52509;DHT22;38420;53.150;6.370;2023-12-20T11:04:23;6.90;99.90
52509;DHT22;38420;53.150;6.370;2023-12-20T11:06:59;7.00;99.90
52509;DHT22;38420;53.150;6.370;2023-12-20T11:09:40;6.90;99.90
52509;DHT22;38420;53.150;6.370;2023-12-20T11:12:15;7.00;99.90
52509;DHT22;38420;53.150;6.370;2023-12-20T11:14:54;7.00;99.90
52509;DHT22;38420;53.150;6.370;2023-12-20T11:17:22;7.00;99.90
52509;DHT22;38420;53.150;6.370;2023-12-20T11:22:19;7.20;99.90
52509;DHT22;38420;53.150;6.370;2023-12-20T11:24:46;7.10;99.90
52509;DHT22;38420;53.150;6.370;2023-12-20T11:27:13;7.10;99.90
52509;DHT22;38420;53.150;6.370;2023-12-20T11:29:39;7.10;99.90
52509;DHT22;38420;53.150;6.370;2023-12-20T11:34:51;7.20;99.90
52509;DHT22;38420;53.150;6.370;2023-12-20T11:37:16;7.20;99.90
52509;DHT22;38420;53.150;6.370;2023-12-20T11:39:44;7.30;99.90
52509;DHT22;38420;53.150;6.370;2023-12-20T11:42:10;7.30;99.90
52509;DHT22;38420;53.150;6.370;2023-12-20T11:44:36;7.40;99.90
52509;DHT22;38420;53.150;6.370;2023-12-20T11:47:03;7.50;99.90
52509;DHT22;38420;53.150;6.370;2023-12-20T11:49:28;7.50;99.90
52509;DHT22;38420;53.150;6.370;2023-12-20T11:51:56;7.60;99.90
52509;DHT22;38420;53.150;6.370;2023-12-20T11:54:22;7.50;99.90
52509;DHT22;38420;53.150;6.370;2023-12-20T11:56:48;7.50;99.90
52509;DHT22;38420;53.150;6.370;2023-12-20T11:59:15;7.40;99.90
52509;DHT22;38420;53.150;6.370;2023-12-20T12:01:42;7.50;99.90
52509;DHT22;38420;53.150;6.370;2023-12-20T12:04:12;7.50;99.90
52509;DHT22;38420;53.150;6.370;2023-12-20T12:06:38;7.60;99.90
52509;DHT22;38420;53.150;6.370;2023-12-20T12:09:04;7.50;99.90
52509;DHT22;38420;53.150;6.370;2023-12-20T12:11:30;7.60;99.90
52509;DHT22;38420;53.150;6.370;2023-12-20T12:13:55;7.60;99.90
52509;DHT22;38420;53.150;6.370;2023-12-20T12:16:21;7.60;99.90
52509;DHT22;38420;53.150;6.370;2023-12-20T12:18:57;7.60;99.90
52509;DHT22;38420;53.150;6.370;2023-12-20T12:21:23;7.60;99.90
52509;DHT22;38420;53.150;6.370;2023-12-20T12:23:49;7.60;99.90
52509;DHT22;38420;53.150;6.370;2023-12-20T12:26:15;7.60;99.90
52509;DHT22;38420;53.150;6.370;2023-12-20T12:28:41;7.60;99.90
52509;DHT22;38420;53.150;6.370;2023-12-20T12:31:07;7.50;99.90
52509;DHT22;38420;53.150;6.370;2023-12-20T12:33:34;7.70;99.90
52509;DHT22;38420;53.150;6.370;2023-12-20T12:36:01;7.70;99.90
52509;DHT22;38420;53.150;6.370;2023-12-20T12:38:27;7.70;99.90
52509;DHT22;38420;53.150;6.370;2023-12-20T12:40:54;7.70;99.90
52509;DHT22;38420;53.150;6.370;2023-12-20T12:43:19;7.70;99.90
52509;DHT22;38420;53.150;6.370;2023-12-20T12:45:45;7.70;99.90
52509;DHT22;38420;53.150;6.370;2023-12-20T12:48:11;7.70;99.90
52509;DHT22;38420;53.150;6.370;2023-12-20T12:50:37;7.70;99.90
52509;DHT22;38420;53.150;6.370;2023-12-20T12:53:02;7.70;99.90
52509;DHT22;38420;53.150;6.370;2023-12-20T12:55:28;7.80;99.90
52509;DHT22;38420;53.150;6.370;2023-12-20T12:57:54;7.70;99.90
52509;DHT22;38420;53.150;6.370;2023-12-20T13:00:20;7.80;99.90
52509;DHT22;38420;53.150;6.370;2023-12-20T13:02:47;7.60;99.90
52509;DHT22;38420;53.150;6.370;2023-12-20T13:05:12;7.70;99.90
52509;DHT22;38420;53.150;6.370;2023-12-20T13:07:38;7.60;99.90
52509;DHT22;38420;53.150;6.370;2023-12-20T13:10:05;7.70;99.90
52509;DHT22;38420;53.150;6.370;2023-12-20T13:12:31;7.50;99.90
52509;DHT22;38420;53.150;6.370;2023-12-20T13:14:57;7.60;99.90
52509;DHT22;38420;53.150;6.370;2023-12-20T13:17:23;7.50;99.90
52509;DHT22;38420;53.150;6.370;2023-12-20T13:19:49;7.20;99.90
52509;DHT22;38420;53.150;6.370;2023-12-20T13:22:15;7.20;99.90
52509;DHT22;38420;53.150;6.370;2023-12-20T13:24:40;6.20;99.90
52509;DHT22;38420;53.150;6.370;2023-12-20T13:27:06;7.30;99.90
52509;DHT22;38420;53.150;6.370;2023-12-20T13:29:32;7.10;99.90
52509;DHT22;38420;53.150;6.370;2023-12-20T13:31:57;7.00;99.90
52509;DHT22;38420;53.150;6.370;2023-12-20T13:34:23;7.00;99.90
52509;DHT22;38420;53.150;6.370;2023-12-20T13:36:49;6.90;99.90
52509;DHT22;38420;53.150;6.370;2023-12-20T13:39:16;7.00;99.90
52509;DHT22;38420;53.150;6.370;2023-12-20T13:41:42;6.90;99.90
52509;DHT22;38420;53.150;6.370;2023-12-20T13:44:07;6.80;99.90
52509;DHT22;38420;53.150;6.370;2023-12-20T13:46:33;6.90;99.90
52509;DHT22;38420;53.150;6.370;2023-12-20T13:48:59;6.90;99.90
52509;DHT22;38420;53.150;6.370;2023-12-20T13:51:25;6.80;99.90
52509;DHT22;38420;53.150;6.370;2023-12-20T13:53:50;6.80;99.90
52509;DHT22;38420;53.150;6.370;2023-12-20T13:56:16;6.70;99.90
52509;DHT22;38420;53.150;6.370;2023-12-20T13:58:41;6.80;99.90
52509;DHT22;38420;53.150;6.370;2023-12-20T14:01:08;6.90;99.90
52509;DHT22;38420;53.150;6.370;2023-12-20T14:03:34;6.80;99.90
52509;DHT22;38420;53.150;6.370;2023-12-20T14:06:00;6.90;99.90
52509;DHT22;38420;53.150;6.370;2023-12-20T14:08:27;6.80;99.90
52509;DHT22;38420;53.150;6.370;2023-12-20T14:10:53;6.90;99.90
52509;DHT22;38420;53.150;6.370;2023-12-20T14:13:19;6.70;99.90
52509;DHT22;38420;53.150;6.370;2023-12-20T14:15:44;6.80;99.90
52509;DHT22;38420;53.150;6.370;2023-12-20T14:18:10;6.80;99.90
52509;DHT22;38420;53.150;6.370;2023-12-20T14:20:37;6.70;99.90
52509;DHT22;38420;53.150;6.370;2023-12-20T14:23:05;6.80;99.90
52509;DHT22;38420;53.150;6.370;2023-12-20T14:25:30;6.60;99.90
52509;DHT22;38420;53.150;6.370;2023-12-20T14:27:59;6.60;99.90
52509;DHT22;38420;53.150;6.370;2023-12-20T14:30:25;6.80;99.90
52509;DHT22;38420;53.150;6.370;2023-12-20T14:32:51;6.70;99.90
52509;DHT22;38420;53.150;6.370;2023-12-20T14:35:16;6.60;99.90
52509;DHT22;38420;53.150;6.370;2023-12-20T14:37:42;6.80;99.90
52509;DHT22;38420;53.150;6.370;2023-12-20T14:40:08;6.60;99.90
52509;DHT22;38420;53.150;6.370;2023-12-20T14:42:43;6.80;99.90
52509;DHT22;38420;53.150;6.370;2023-12-20T14:45:09;6.70;99.90
52509;DHT22;38420;53.150;6.370;2023-12-20T14:47:35;6.60;99.90
52509;DHT22;38420;53.150;6.370;2023-12-20T14:50:04;6.50;99.90
52509;DHT22;38420;53.150;6.370;2023-12-20T14:52:31;6.60;99.90
52509;DHT22;38420;53.150;6.370;2023-12-20T14:54:56;6.60;99.90
52509;DHT22;38420;53.150;6.370;2023-12-20T14:57:22;6.50;99.90
52509;DHT22;38420;53.150;6.370;2023-12-20T14:59:48;6.40;99.90
52509;DHT22;38420;53.150;6.370;2023-12-20T15:02:13;6.60;99.90
52509;DHT22;38420;53.150;6.370;2023-12-20T15:04:40;6.70;99.90
52509;DHT22;38420;53.150;6.370;2023-12-20T15:07:06;6.40;99.90
52509;DHT22;38420;53.150;6.370;2023-12-20T15:09:32;6.40;99.90
52509;DHT22;38420;53.150;6.370;2023-12-20T15:11:57;6.60;99.90
52509;DHT22;38420;53.150;6.370;2023-12-20T15:14:23;6.40;99.90
52509;DHT22;38420;53.150;6.370;2023-12-20T15:16:49;6.40;99.90
52509;DHT22;38420;53.150;6.370;2023-12-20T15:19:15;6.70;99.90
52509;DHT22;38420;53.150;6.370;2023-12-20T15:21:41;6.40;99.90
52509;DHT22;38420;53.150;6.370;2023-12-20T15:24:09;6.60;99.90
52509;DHT22;38420;53.150;6.370;2023-12-20T15:26:43;6.40;99.90
52509;DHT22;38420;53.150;6.370;2023-12-20T15:29:10;6.60;99.90
52509;DHT22;38420;53.150;6.370;2023-12-20T15:31:41;6.40;99.90
52509;DHT22;38420;53.150;6.370;2023-12-20T15:34:07;6.30;99.90
52509;DHT22;38420;53.150;6.370;2023-12-20T15:36:32;6.50;99.90
52509;DHT22;38420;53.150;6.370;2023-12-20T15:38:58;6.30;99.90
52509;DHT22;38420;53.150;6.370;2023-12-20T15:41:24;6.70;99.90
52509;DHT22;38420;53.150;6.370;2023-12-20T15:43:49;6.50;99.90